Time;durP1;ratioP1;P1;durP2;ratioP2;P2;SDS_P1;SDS_P2;PMS_P1;PMS_P2;Temp;Humidity;BMP_temperature;BMP_pressure;BME280_temperature;BME280_humidity;BME280_pressure;Samples;Min_cycle;Max_cycle;Signal;HPM_P1;HPM_P2
2022/02/01 00:02:12;;;;;;;1.10;1.10;;;3.60;98.00;;;;;;5078639;28;20535;-73
2022/02/01 00:04:46;;;;;;;1.10;1.00;;;3.60;98.00;;;;;;5093292;28;20459;-73
2022/02/01 00:07:20;;;;;;;1.10;0.90;;;3.60;98.00;;;;;;5093708;28;20451;-73
2022/02/01 00:09:55;;;;;;;1.10;0.90;;;3.70;98.00;;;;;;5076721;28;20509;-73
2022/02/01 00:12:35;;;;;;;1.10;1.10;;;3.70;98.00;;;;;;5093268;28;20910;-73
2022/02/01 00:15:27;;;;;;;1.10;0.90;;;3.80;98.00;;;;;;5094134;28;20983;-73
2022/02/01 00:18:10;;;;;;;1.10;0.90;;;3.80;98.00;;;;;;5093474;28;20534;-73
2022/02/01 00:34:32;;;;;;;1.10;0.90;;;4.00;98.00;;;;;;5093216;28;20443;-73
2022/02/01 00:37:02;;;;;;;1.70;1.53;;;4.00;98.00;;;;;;5092922;28;20455;-73
2022/02/01 00:39:32;;;;;;;1.10;0.90;;;4.00;98.00;;;;;;5092785;28;20455;-73
2022/02/01 00:41:59;;;;;;;1.10;1.00;;;4.00;98.00;;;;;;5092739;28;20512;-72
2022/02/01 00:44:28;;;;;;;1.20;1.10;;;4.00;98.00;;;;;;5092778;28;20456;-72
2022/02/01 00:46:55;;;;;;;1.10;1.00;;;4.00;98.00;;;;;;5058374;28;20452;-72
2022/02/01 00:49:24;;;;;;;1.10;1.00;;;4.00;98.00;;;;;;5092805;28;20484;-73
2022/02/01 00:51:51;;;;;;;1.10;0.90;;;4.10;98.00;;;;;;5092809;28;20491;-73
2022/02/01 00:54:19;;;;;;;1.10;1.00;;;4.10;98.00;;;;;;5092473;28;20499;-73
2022/02/01 00:56:46;;;;;;;1.10;0.90;;;4.20;98.00;;;;;;5092450;28;20491;-72
2022/02/01 00:59:13;;;;;;;1.10;0.90;;;4.20;98.00;;;;;;5092507;28;20505;-72
2022/02/01 01:01:41;;;;;;;1.10;1.00;;;4.20;98.00;;;;;;5092280;28;20452;-72
2022/02/01 01:04:09;;;;;;;1.10;1.00;;;4.20;98.00;;;;;;5092278;28;20492;-73
2022/02/01 01:06:36;;;;;;;1.10;1.00;;;4.10;98.00;;;;;;5092173;28;20491;-73
2022/02/01 01:09:04;;;;;;;1.10;0.90;;;4.10;98.00;;;;;;5092252;28;20483;-73
2022/02/01 01:11:31;;;;;;;1.10;0.90;;;4.00;98.00;;;;;;5091752;28;20456;-73
2022/02/01 01:17:06;;;;;;;1.10;0.90;;;4.00;98.00;;;;;;5092162;28;21017;-72
2022/02/01 01:43:35;;;;;;;1.10;1.00;;;3.60;98.00;;;;;;5091714;28;20980;-73
2022/02/01 01:44:32;;;;;;;1.10;1.00;;;3.60;98.00;;;;;;5091445;28;20451;-73
2022/02/01 01:53:11;;;;;;;1.10;0.90;;;3.40;98.00;;;;;;5091482;28;20483;-73
2022/02/01 01:55:40;;;;;;;1.10;1.00;;;3.30;98.00;;;;;;5091060;28;20482;-73
2022/02/01 01:58:20;;;;;;;1.10;0.90;;;3.30;98.00;;;;;;5091548;28;20934;-73
2022/02/01 02:01:09;;;;;;;1.10;0.90;;;3.30;98.00;;;;;;5091261;28;20455;-73
2022/02/01 02:03:38;;;;;;;1.10;0.90;;;3.30;98.00;;;;;;5091390;28;20458;-73
2022/02/01 02:06:06;;;;;;;1.10;0.90;;;3.30;98.00;;;;;;5073333;28;20547;-73
2022/02/01 02:08:33;;;;;;;1.30;1.10;;;3.30;98.00;;;;;;5073169;28;20459;-73
2022/02/01 02:11:04;;;;;;;1.10;0.90;;;3.30;98.00;;;;;;5091313;28;20474;-73
2022/02/01 02:16:20;;;;;;;1.10;1.10;;;3.30;98.00;;;;;;5091376;28;20446;-73
2022/02/01 02:18:47;;;;;;;1.10;0.90;;;3.20;98.00;;;;;;5091197;28;20509;-73
2022/02/01 02:21:18;;;;;;;1.10;1.00;;;3.30;98.00;;;;;;5090904;28;20895;-73
2022/02/01 02:23:46;;;;;;;1.10;1.00;;;3.30;98.00;;;;;;5090744;28;20507;-73
2022/02/01 02:26:14;;;;;;;1.10;0.90;;;3.40;98.00;;;;;;5091008;28;20561;-73
2022/02/01 02:28:41;;;;;;;1.10;0.90;;;3.40;98.00;;;;;;5091011;28;20462;-73
2022/02/01 02:31:08;;;;;;;1.20;1.20;;;3.50;98.00;;;;;;5090953;28;20509;-73
2022/02/01 02:33:35;;;;;;;1.10;0.90;;;3.60;98.00;;;;;;5090909;28;20514;-73
2022/02/01 02:36:08;;;;;;;1.10;0.90;;;3.60;98.00;;;;;;5090804;28;20884;-73
2022/02/01 02:38:42;;;;;;;1.10;1.00;;;3.60;98.00;;;;;;5090838;28;21044;-73
2022/02/01 02:46:51;;;;;;;1.10;0.90;;;3.70;98.00;;;;;;5090797;28;20514;-73
2022/02/01 02:49:20;;;;;;;1.43;1.37;;;3.70;98.00;;;;;;5090813;28;20552;-73
2022/02/01 02:51:48;;;;;;;1.30;1.20;;;3.70;98.00;;;;;;5090658;28;20499;-73
2022/02/01 02:54:18;;;;;;;1.10;1.00;;;3.70;98.00;;;;;;5090426;28;20931;-73
2022/02/01 02:56:47;;;;;;;1.10;1.00;;;3.70;98.00;;;;;;5090540;28;20494;-73
2022/02/01 02:59:15;;;;;;;1.10;0.90;;;3.70;98.00;;;;;;5090592;28;20498;-73
2022/02/01 03:01:46;;;;;;;1.10;1.00;;;3.70;98.00;;;;;;5090696;28;21014;-73
2022/02/01 03:04:14;;;;;;;1.77;1.43;;;3.70;98.00;;;;;;5090746;28;20451;-73
2022/02/01 03:06:41;;;;;;;1.10;0.90;;;3.70;98.00;;;;;;5072625;28;20509;-73
2022/02/01 03:09:09;;;;;;;1.10;1.10;;;3.70;98.00;;;;;;5090621;28;20470;-73
2022/02/01 03:11:38;;;;;;;1.10;0.90;;;3.70;98.00;;;;;;5090523;28;20471;-73
2022/02/01 03:14:16;;;;;;;1.10;0.90;;;3.70;98.00;;;;;;5090421;28;20892;-73
2022/02/01 03:16:57;;;;;;;1.10;1.00;;;3.70;98.00;;;;;;5090651;28;20469;-73
2022/02/01 03:22:09;;;;;;;1.83;1.80;;;3.70;98.00;;;;;;5090435;28;20593;-73
2022/02/01 03:24:36;;;;;;;1.10;0.90;;;3.70;98.00;;;;;;5090352;28;20503;-73
2022/02/01 03:27:05;;;;;;;1.10;1.00;;;3.70;98.00;;;;;;5090416;28;20466;-73
2022/02/01 03:29:33;;;;;;;1.10;1.00;;;3.60;98.00;;;;;;5090521;28;20487;-73
2022/02/01 03:32:00;;;;;;;1.10;1.00;;;3.60;98.00;;;;;;5072387;28;20444;-73
2022/02/01 03:34:28;;;;;;;1.10;1.00;;;3.60;98.00;;;;;;5093458;28;20518;-73
2022/02/01 03:36:55;;;;;;;1.20;1.00;;;3.60;98.00;;;;;;5094303;28;20750;-73
2022/02/01 03:39:22;;;;;;;1.10;0.90;;;3.60;98.00;;;;;;5094148;28;20550;-73
2022/02/01 03:41:50;;;;;;;1.10;0.90;;;3.60;98.00;;;;;;5093959;28;20830;-73
2022/02/01 03:44:19;;;;;;;1.10;0.90;;;3.60;98.00;;;;;;5075695;28;20884;-73
2022/02/01 03:46:56;;;;;;;1.30;1.30;;;3.60;98.00;;;;;;5093729;28;20455;-73
2022/02/01 03:49:23;;;;;;;1.10;1.00;;;3.60;98.00;;;;;;5093799;28;20486;-73
2022/02/01 03:51:50;;;;;;;1.10;0.90;;;3.60;98.00;;;;;;5093668;28;20513;-73
2022/02/01 03:54:17;;;;;;;1.30;1.07;;;3.50;98.00;;;;;;5093361;28;20578;-73
2022/02/01 03:56:47;;;;;;;1.10;0.90;;;3.50;98.00;;;;;;5093198;28;20494;-73
2022/02/01 03:59:14;;;;;;;1.10;0.97;;;3.50;98.00;;;;;;5058905;28;20937;-73
2022/02/01 04:01:42;;;;;;;1.10;0.90;;;3.50;98.00;;;;;;5093429;28;20884;-73
2022/02/01 04:04:12;;;;;;;1.10;1.00;;;3.50;98.00;;;;;;5093463;28;20479;-73
2022/02/01 04:06:39;;;;;;;1.10;0.90;;;3.50;98.00;;;;;;5093215;28;20450;-73
2022/02/01 04:09:06;;;;;;;1.20;1.17;;;3.50;98.00;;;;;;5093418;28;20452;-73
2022/02/01 04:11:33;;;;;;;1.10;1.00;;;3.50;98.00;;;;;;5093278;28;20459;-73
2022/02/01 04:14:03;;;;;;;1.10;1.00;;;3.50;98.00;;;;;;5093157;28;21097;-73
2022/02/01 04:16:30;;;;;;;1.10;1.00;;;3.60;98.00;;;;;;5093178;28;20465;-73
2022/02/01 04:19:02;;;;;;;1.10;1.00;;;3.60;98.00;;;;;;5093100;28;20552;-73
2022/02/01 04:21:29;;;;;;;1.10;0.90;;;3.60;98.00;;;;;;5093164;28;20452;-73
2022/02/01 04:23:56;;;;;;;1.10;1.00;;;3.60;98.00;;;;;;5093005;28;20491;-73
2022/02/01 04:26:23;;;;;;;1.10;0.90;;;3.60;98.00;;;;;;5093254;28;20545;-73
2022/02/01 04:28:51;;;;;;;1.20;1.10;;;3.60;98.00;;;;;;5093078;28;20553;-73
2022/02/01 04:31:18;;;;;;;1.10;0.90;;;3.60;98.00;;;;;;5092722;28;20488;-73
2022/02/01 04:33:45;;;;;;;1.10;1.00;;;3.60;98.00;;;;;;5092970;28;20922;-73
2022/02/01 04:36:13;;;;;;;1.10;1.00;;;3.70;98.00;;;;;;5092718;28;20499;-73
2022/02/01 04:38:46;;;;;;;1.10;0.90;;;3.60;98.00;;;;;;5092824;28;20459;-73
2022/02/01 04:41:13;;;;;;;1.20;1.10;;;3.60;98.00;;;;;;5092820;28;20477;-73
2022/02/01 04:43:40;;;;;;;1.23;1.23;;;3.70;98.00;;;;;;5092650;28;20451;-73
2022/02/01 04:46:09;;;;;;;1.20;1.17;;;3.60;98.00;;;;;;5091925;28;20456;-73
2022/02/01 04:48:36;;;;;;;1.10;0.97;;;3.60;98.00;;;;;;5092547;28;20814;-73
2022/02/01 04:51:05;;;;;;;1.10;1.10;;;3.60;98.00;;;;;;5092657;28;20975;-73
2022/02/01 04:53:34;;;;;;;1.10;1.00;;;3.60;98.00;;;;;;5092801;28;20487;-73
2022/02/01 04:56:01;;;;;;;1.10;1.10;;;3.60;98.00;;;;;;5092971;28;20555;-73
2022/02/01 04:58:28;;;;;;;1.10;0.90;;;3.60;98.00;;;;;;5092801;28;20483;-73
2022/02/01 05:00:55;;;;;;;1.10;0.90;;;3.50;98.00;;;;;;5092989;28;20456;-73
2022/02/01 05:03:23;;;;;;;1.10;0.90;;;3.60;98.00;;;;;;5092667;28;20443;-73
2022/02/01 05:05:50;;;;;;;1.10;1.00;;;3.60;98.00;;;;;;5092326;28;20536;-73
2022/02/01 05:08:18;;;;;;;1.50;1.37;;;3.60;98.00;;;;;;5075629;28;20788;-73
2022/02/01 05:10:47;;;;;;;1.10;1.00;;;3.60;98.00;;;;;;5092765;28;20470;-73
2022/02/01 05:16:03;;;;;;;1.10;0.90;;;3.60;98.00;;;;;;5089937;28;20462;-73
2022/02/01 05:18:37;;;;;;;1.10;1.00;;;3.60;98.00;;;;;;5092283;28;20462;-73
2022/02/01 05:21:09;;;;;;;1.10;1.10;;;3.60;98.00;;;;;;5092045;28;20459;-73
2022/02/01 05:23:36;;;;;;;1.10;0.93;;;3.50;98.00;;;;;;5092269;28;20881;-73
2022/02/01 05:26:04;;;;;;;1.20;1.10;;;3.40;98.00;;;;;;5091865;28;20513;-73
2022/02/01 05:28:32;;;;;;;1.10;1.00;;;3.40;98.00;;;;;;5092005;28;20455;-73
2022/02/01 05:31:02;;;;;;;1.93;1.57;;;3.40;98.00;;;;;;5091669;28;20516;-73
2022/02/01 05:33:29;;;;;;;1.10;0.90;;;3.40;98.00;;;;;;5091734;28;20487;-73
2022/02/01 05:35:57;;;;;;;1.10;1.00;;;3.50;98.00;;;;;;5091504;28;20456;-73
2022/02/01 05:38:30;;;;;;;1.10;0.90;;;3.60;98.00;;;;;;5091734;28;20545;-73
2022/02/01 05:40:57;;;;;;;1.10;1.00;;;3.60;98.00;;;;;;5091505;28;20471;-73
2022/02/01 05:43:28;;;;;;;1.10;1.00;;;3.50;98.00;;;;;;5091828;28;20464;-73
2022/02/01 05:45:58;;;;;;;1.10;1.00;;;3.50;98.00;;;;;;5091613;28;20500;-73
2022/02/01 05:48:25;;;;;;;1.10;0.90;;;3.50;98.00;;;;;;5091368;28;20514;-73
2022/02/01 05:50:54;;;;;;;1.10;1.00;;;3.50;98.00;;;;;;5091411;28;20465;-73
2022/02/01 05:53:22;;;;;;;2.03;1.20;;;3.50;98.00;;;;;;5091220;28;20487;-73
2022/02/01 05:55:49;;;;;;;2.03;1.10;;;3.50;98.00;;;;;;5091387;28;20879;-73
2022/02/01 05:58:17;;;;;;;1.10;0.90;;;3.50;98.00;;;;;;5090697;28;21053;-73
2022/02/01 06:00:46;;;;;;;1.10;1.00;;;3.50;98.00;;;;;;5091385;28;20483;-73
2022/02/01 06:03:13;;;;;;;1.10;1.00;;;3.50;98.00;;;;;;5091223;28;20504;-73
2022/02/01 06:05:40;;;;;;;1.10;1.00;;;3.60;98.00;;;;;;5091162;28;20894;-73
2022/02/01 06:08:07;;;;;;;1.10;1.00;;;3.50;98.00;;;;;;5091196;28;20487;-73
2022/02/01 06:10:34;;;;;;;1.60;1.60;;;3.40;98.00;;;;;;5091205;28;20460;-73
2022/02/01 06:13:01;;;;;;;1.10;1.00;;;3.50;98.00;;;;;;5091037;28;20483;-73
2022/02/01 06:15:31;;;;;;;1.10;0.90;;;3.40;98.00;;;;;;5091104;28;20509;-73
2022/02/01 06:17:59;;;;;;;1.10;1.00;;;3.50;98.00;;;;;;5091320;28;20465;-73
2022/02/01 06:20:27;;;;;;;1.10;1.00;;;3.30;98.00;;;;;;5091165;28;20866;-73
2022/02/01 06:22:54;;;;;;;1.10;1.00;;;3.40;98.00;;;;;;5091037;28;20542;-73
2022/02/01 06:25:41;;;;;;;1.10;1.00;;;3.40;98.00;;;;;;5090665;28;20494;-73
2022/02/01 06:28:08;;;;;;;1.10;1.00;;;3.40;98.00;;;;;;5091151;28;21025;-73
2022/02/01 06:30:35;;;;;;;1.10;1.00;;;3.40;98.00;;;;;;5091106;28;20501;-73
2022/02/01 06:33:03;;;;;;;1.10;1.00;;;3.40;98.00;;;;;;5090947;28;20493;-73
2022/02/01 06:35:31;;;;;;;1.10;1.00;;;3.40;98.00;;;;;;5091062;28;20479;-73
2022/02/01 06:37:58;;;;;;;1.10;1.00;;;3.30;98.00;;;;;;5091106;28;20626;-73
2022/02/01 06:40:24;;;;;;;1.10;1.00;;;3.30;98.00;;;;;;5090733;28;20495;-73
2022/02/01 06:42:52;;;;;;;1.10;1.00;;;3.30;98.00;;;;;;5090823;28;20516;-73
2022/02/01 06:45:19;;;;;;;1.10;1.00;;;3.20;98.00;;;;;;5090806;28;20547;-73
2022/02/01 06:47:46;;;;;;;1.60;1.50;;;3.30;98.00;;;;;;5090675;28;20498;-73
2022/02/01 06:50:19;;;;;;;1.10;1.00;;;3.30;98.00;;;;;;5090779;28;20463;-73
2022/02/01 06:52:46;;;;;;;1.10;1.00;;;3.20;98.00;;;;;;5091055;28;20507;-73
2022/02/01 06:55:14;;;;;;;1.27;1.20;;;3.10;98.00;;;;;;5090620;28;21102;-73
2022/02/01 06:57:41;;;;;;;1.10;1.00;;;3.20;98.00;;;;;;5090875;28;20490;-73
2022/02/01 07:00:10;;;;;;;1.10;0.90;;;3.30;98.00;;;;;;5090977;28;20518;-73
2022/02/01 07:02:37;;;;;;;1.10;1.00;;;3.20;98.00;;;;;;5090663;28;20493;-73
2022/02/01 07:05:05;;;;;;;1.10;1.00;;;3.20;98.00;;;;;;5090401;28;20516;-73
2022/02/01 07:07:34;;;;;;;1.10;1.00;;;3.20;98.00;;;;;;5090655;28;20480;-73
2022/02/01 07:10:02;;;;;;;1.10;1.00;;;3.20;98.00;;;;;;5094539;28;21009;-73
2022/02/01 07:12:28;;;;;;;1.10;1.00;;;3.20;98.00;;;;;;5094601;28;20961;-73
2022/02/01 07:14:55;;;;;;;1.60;1.50;;;3.20;98.00;;;;;;5094242;28;20510;-73
2022/02/01 07:17:22;;;;;;;1.10;1.00;;;3.20;98.00;;;;;;5094456;28;20537;-73
2022/02/01 07:19:49;;;;;;;1.10;1.07;;;3.20;98.00;;;;;;5094420;28;20516;-73
2022/02/01 07:22:16;;;;;;;1.10;1.07;;;3.30;98.00;;;;;;5094256;28;20534;-73
2022/02/01 07:24:56;;;;;;;1.10;1.00;;;3.30;98.00;;;;;;5094228;28;20548;-73
2022/02/01 07:27:37;;;;;;;1.10;1.00;;;3.30;98.00;;;;;;5094255;28;20486;-72
2022/02/01 07:30:08;;;;;;;1.10;0.97;;;3.30;98.00;;;;;;5094020;28;20459;-73
2022/02/01 07:32:37;;;;;;;1.10;1.00;;;3.30;98.00;;;;;;5094071;28;20456;-73
2022/02/01 07:35:05;;;;;;;1.10;1.00;;;3.20;98.00;;;;;;5093583;28;20573;-73
2022/02/01 07:37:33;;;;;;;1.10;0.90;;;3.20;98.00;;;;;;5094034;28;20460;-73
2022/02/01 07:40:02;;;;;;;1.93;1.33;;;3.30;98.00;;;;;;5093762;28;20495;-71
2022/02/01 07:42:31;;;;;;;1.10;1.00;;;3.20;98.00;;;;;;5094042;28;20502;-71
2022/02/01 07:45:01;;;;;;;1.10;1.00;;;3.20;98.00;;;;;;5093820;28;21029;-71
2022/02/01 07:47:30;;;;;;;1.20;1.10;;;3.20;98.00;;;;;;5093889;28;20474;-71
2022/02/01 07:49:58;;;;;;;1.10;0.90;;;3.20;98.00;;;;;;5094044;28;20469;-71
2022/02/01 07:52:25;;;;;;;1.10;1.00;;;3.30;98.00;;;;;;5094021;28;20494;-71
2022/02/01 07:54:52;;;;;;;1.10;1.00;;;3.40;98.00;;;;;;5094022;28;20523;-71
2022/02/01 07:57:21;;;;;;;3.20;1.67;;;3.30;98.00;;;;;;5093668;28;20528;-70
2022/02/01 07:59:48;;;;;;;1.10;1.00;;;3.30;98.00;;;;;;5093787;28;20512;-71
2022/02/01 08:02:19;;;;;;;1.60;1.10;;;3.30;98.00;;;;;;5093487;28;20559;-70
2022/02/01 08:04:46;;;;;;;7.47;1.83;;;3.30;98.00;;;;;;5093643;28;20486;-70
2022/02/01 08:07:13;;;;;;;1.10;1.00;;;3.40;98.00;;;;;;5093580;28;20516;-70
2022/02/01 08:09:44;;;;;;;1.10;1.00;;;3.50;98.00;;;;;;5093485;28;20506;-71
2022/02/01 08:12:21;;;;;;;1.10;0.90;;;3.40;98.00;;;;;;5093527;28;20538;-70
2022/02/01 08:17:38;;;;;;;1.10;1.00;;;3.50;98.00;;;;;;5082431;28;20452;-70
2022/02/01 08:20:12;;;;;;;1.10;1.00;;;3.60;98.00;;;;;;5092347;28;20502;-71
2022/02/01 08:23:00;;;;;;;1.10;1.00;;;3.70;98.00;;;;;;5093166;28;20455;-71
2022/02/01 08:25:27;;;;;;;1.10;0.90;;;3.70;98.00;;;;;;5093035;28;20454;-70
2022/02/01 08:27:55;;;;;;;1.10;1.00;;;3.70;98.00;;;;;;5092948;28;20946;-70
2022/02/01 08:30:24;;;;;;;1.10;1.00;;;3.60;98.00;;;;;;5092549;28;20529;-70
2022/02/01 08:32:51;;;;;;;3.10;1.30;;;3.70;98.00;;;;;;5092822;28;20451;-71
2022/02/01 08:35:18;;;;;;;1.10;1.00;;;3.70;98.00;;;;;;5092533;28;20848;-71
2022/02/01 08:37:46;;;;;;;1.30;1.27;;;3.70;98.00;;;;;;5092821;28;20969;-71
2022/02/01 08:40:16;;;;;;;1.10;1.00;;;3.70;98.00;;;;;;5092655;28;20452;-70
2022/02/01 08:42:43;;;;;;;1.50;1.10;;;3.80;98.00;;;;;;5092380;28;20452;-69
2022/02/01 08:45:12;;;;;;;1.93;1.83;;;3.80;98.00;;;;;;5074866;28;20483;-67
2022/02/01 08:47:41;;;;;;;1.10;0.90;;;3.90;98.00;;;;;;5092643;28;20513;-71
2022/02/01 08:50:09;;;;;;;1.10;1.00;;;3.90;98.00;;;;;;5092532;28;20455;-71
2022/02/01 08:52:41;;;;;;;1.10;1.00;;;3.90;98.00;;;;;;5092669;28;20463;-70
2022/02/01 08:55:18;;;;;;;1.50;1.10;;;3.90;98.00;;;;;;5092407;28;20480;-71
2022/02/01 08:57:46;;;;;;;1.10;0.90;;;3.90;98.00;;;;;;5092404;28;20452;-72
2022/02/01 09:00:15;;;;;;;1.13;1.10;;;3.90;98.00;;;;;;5092422;28;20982;-71
2022/02/01 09:03:02;;;;;;;1.10;1.00;;;3.90;98.00;;;;;;5092635;28;20942;-71
2022/02/01 09:05:29;;;;;;;1.10;0.90;;;3.90;98.00;;;;;;5091816;28;20475;-71
2022/02/01 09:07:57;;;;;;;1.10;1.00;;;3.90;98.00;;;;;;5094953;28;20495;-71
2022/02/01 09:10:24;;;;;;;1.10;1.00;;;3.90;98.00;;;;;;5110154;28;20878;-71
2022/02/01 09:12:52;;;;;;;1.10;1.00;;;4.00;98.00;;;;;;5110352;28;20548;-71
2022/02/01 09:15:19;;;;;;;1.40;1.30;;;4.00;98.00;;;;;;5109991;28;20578;-69
2022/02/01 09:17:47;;;;;;;1.10;0.90;;;4.00;98.00;;;;;;5093539;28;20941;-72
2022/02/01 09:20:15;;;;;;;1.10;0.90;;;4.10;98.00;;;;;;5109755;28;21140;-70
2022/02/01 09:22:42;;;;;;;1.10;1.00;;;4.10;98.00;;;;;;5093102;28;20498;-72
2022/02/01 09:25:10;;;;;;;1.20;1.10;;;4.20;98.00;;;;;;5091518;28;20511;-73
2022/02/01 09:27:38;;;;;;;1.10;0.97;;;4.20;98.00;;;;;;5110244;28;20447;-72
2022/02/01 09:30:06;;;;;;;1.17;1.10;;;4.20;98.00;;;;;;5109743;28;20474;-70
2022/02/01 09:32:34;;;;;;;2.10;1.60;;;4.20;98.00;;;;;;5109672;28;20487;-72
2022/02/01 09:35:00;;;;;;;1.10;1.00;;;4.30;98.00;;;;;;5109631;28;21000;-69
2022/02/01 09:37:29;;;;;;;1.10;1.00;;;4.30;98.00;;;;;;5109924;28;20555;-69
2022/02/01 09:39:56;;;;;;;1.60;1.50;;;4.30;98.00;;;;;;5109669;28;20497;-68
2022/02/01 09:42:27;;;;;;;1.10;1.00;;;4.20;98.00;;;;;;5091626;28;20458;-67
2022/02/01 09:44:54;;;;;;;1.10;1.00;;;4.20;98.00;;;;;;5109609;28;20904;-70
2022/02/01 09:47:32;;;;;;;1.10;1.00;;;4.20;98.00;;;;;;5109591;28;20479;-69
2022/02/01 09:49:59;;;;;;;1.20;1.03;;;4.20;98.00;;;;;;5107403;28;20469;-69
2022/02/01 09:52:26;;;;;;;1.10;1.00;;;4.10;98.00;;;;;;5108958;28;20486;-70
2022/02/01 09:54:55;;;;;;;1.17;1.10;;;4.00;98.00;;;;;;5109095;28;20907;-71
2022/02/01 09:57:22;;;;;;;1.10;1.00;;;4.00;98.00;;;;;;5109209;28;20451;-68
2022/02/01 09:59:54;;;;;;;1.10;1.00;;;4.00;98.00;;;;;;5101826;28;20539;-71
2022/02/01 10:02:22;;;;;;;1.10;0.90;;;4.00;98.00;;;;;;5102955;28;20479;-71
2022/02/01 10:05:01;;;;;;;1.10;1.00;;;3.90;98.00;;;;;;5109092;28;20550;-70
2022/02/01 10:07:30;;;;;;;1.10;0.90;;;3.90;98.00;;;;;;5110080;28;20458;-70
2022/02/01 10:10:01;;;;;;;4.00;1.53;;;4.10;98.00;;;;;;5092091;28;20656;-70
2022/02/01 10:12:32;;;;;;;1.10;1.00;;;4.10;98.00;;;;;;5110262;28;20879;-70
2022/02/01 10:15:05;;;;;;;1.10;0.90;;;4.20;98.00;;;;;;5108262;28;20858;-70
2022/02/01 10:17:40;;;;;;;1.10;1.00;;;4.20;98.00;;;;;;5109054;28;20816;-69
2022/02/01 10:20:08;;;;;;;1.10;1.10;;;4.30;98.00;;;;;;5109154;28;21012;-69
2022/02/01 10:22:36;;;;;;;1.10;1.00;;;4.50;98.00;;;;;;5109143;28;20458;-70
2022/02/01 10:25:19;;;;;;;1.10;0.93;;;4.50;98.00;;;;;;5108913;28;20484;-70
2022/02/01 10:27:54;;;;;;;2.60;1.20;;;4.60;98.00;;;;;;5109348;28;20559;-67
2022/02/01 10:30:29;;;;;;;1.10;1.00;;;4.60;98.00;;;;;;5109460;28;20490;-72
2022/02/01 10:33:21;;;;;;;1.50;1.10;;;4.80;98.00;;;;;;5109359;28;20446;-70
2022/02/01 10:35:58;;;;;;;1.10;1.00;;;4.80;98.00;;;;;;5095540;28;20494;-70
2022/02/01 10:38:32;;;;;;;1.20;1.00;;;5.00;98.00;;;;;;5108984;28;20875;-71
2022/02/01 10:41:03;;;;;;;1.10;1.00;;;5.10;98.00;;;;;;5108500;28;20449;-70
2022/02/01 10:43:32;;;;;;;1.10;1.00;;;5.20;98.00;;;;;;5110289;28;21143;-69
2022/02/01 10:46:07;;;;;;;1.10;1.00;;;5.30;98.00;;;;;;5109668;28;20509;-70
2022/02/01 10:48:34;;;;;;;1.10;1.00;;;5.40;98.00;;;;;;5095015;28;21010;-70
2022/02/01 10:51:04;;;;;;;1.20;1.03;;;5.50;98.00;;;;;;5094745;28;20525;-70
2022/02/01 10:53:32;;;;;;;1.20;1.20;;;5.40;98.00;;;;;;5076856;28;20460;-72
2022/02/01 10:56:04;;;;;;;1.10;0.90;;;5.40;98.00;;;;;;5094505;28;20479;-70
2022/02/01 10:58:32;;;;;;;1.10;1.00;;;5.40;98.00;;;;;;5086351;28;20496;-69
2022/02/01 11:01:00;;;;;;;1.10;1.00;;;5.30;98.00;;;;;;5087766;28;20541;-69
2022/02/01 11:03:27;;;;;;;1.10;0.90;;;5.10;98.00;;;;;;5094830;28;20463;-70
2022/02/01 11:06:00;;;;;;;1.10;1.00;;;5.10;98.00;;;;;;5094690;28;20967;-69
2022/02/01 11:08:31;;;;;;;1.10;1.00;;;4.90;98.00;;;;;;5094556;28;20453;-70
2022/02/01 11:11:02;;;;;;;1.30;1.10;;;4.90;98.00;;;;;;5094266;28;20494;-70
2022/02/01 11:13:40;;;;;;;1.10;1.00;;;4.80;98.00;;;;;;5096912;28;20539;-70
2022/02/01 11:16:09;;;;;;;1.67;1.63;;;4.70;98.00;;;;;;5114606;28;20479;-70
2022/02/01 11:18:36;;;;;;;1.20;1.00;;;4.80;98.00;;;;;;5114805;28;20493;-70
2022/02/01 11:21:14;;;;;;;1.10;1.00;;;4.70;98.00;;;;;;5114582;28;20484;-69
2022/02/01 11:23:48;;;;;;;1.10;1.03;;;4.70;98.00;;;;;;5114638;28;20503;-70
2022/02/01 11:26:32;;;;;;;1.10;1.00;;;4.60;98.00;;;;;;5114314;28;20446;-70
2022/02/01 11:31:49;;;;;;;1.10;1.00;;;4.60;98.00;;;;;;5114637;28;20508;-69
2022/02/01 11:34:25;;;;;;;1.10;0.93;;;4.60;98.00;;;;;;5114518;28;20543;-69
2022/02/01 11:36:57;;;;;;;1.10;1.00;;;4.50;98.00;;;;;;5114326;28;20517;-69
2022/02/01 11:39:25;;;;;;;1.10;0.93;;;4.60;98.00;;;;;;5114303;28;20545;-70
2022/02/01 11:41:54;;;;;;;1.10;0.90;;;4.60;98.00;;;;;;5114207;28;20458;-70
2022/02/01 11:44:26;;;;;;;1.10;1.00;;;4.60;98.00;;;;;;5114349;28;20458;-70
2022/02/01 11:47:08;;;;;;;1.10;1.00;;;4.70;98.00;;;;;;5114292;28;20873;-71
2022/02/01 11:49:36;;;;;;;1.10;0.90;;;4.70;98.00;;;;;;5096100;28;20980;-69
2022/02/01 11:52:11;;;;;;;1.10;1.00;;;4.70;98.00;;;;;;5114384;28;20501;-70
2022/02/01 11:54:40;;;;;;;4.30;1.97;;;4.60;98.00;;;;;;5114355;28;20506;-71
2022/02/01 11:57:17;;;;;;;1.17;1.00;;;4.60;98.00;;;;;;5113991;28;20555;-70
2022/02/01 11:59:55;;;;;;;1.10;1.00;;;4.50;98.00;;;;;;5114004;28;20901;-70
2022/02/01 12:02:34;;;;;;;1.10;0.90;;;4.50;98.00;;;;;;5113998;28;20497;-70
2022/02/01 12:05:09;;;;;;;1.10;1.00;;;4.40;98.00;;;;;;5113769;28;20458;-70
2022/02/01 12:07:45;;;;;;;1.10;1.00;;;4.50;98.00;;;;;;5113826;28;20930;-69
2022/02/01 12:10:13;;;;;;;1.10;1.00;;;4.50;98.00;;;;;;5113770;28;20486;-70
2022/02/01 12:12:42;;;;;;;1.37;1.23;;;4.50;98.00;;;;;;5113633;28;20457;-69
2022/02/01 12:15:10;;;;;;;1.20;1.10;;;4.50;98.00;;;;;;5112648;28;20483;-70
2022/02/01 12:17:44;;;;;;;1.10;1.00;;;4.40;98.00;;;;;;5113528;28;20881;-70
2022/02/01 12:20:16;;;;;;;1.10;1.00;;;4.40;98.00;;;;;;5113669;28;20490;-70
2022/02/01 12:23:16;;;;;;;1.10;1.00;;;4.40;98.00;;;;;;5113419;28;20515;-70
2022/02/01 12:25:43;;;;;;;1.10;0.90;;;4.50;98.00;;;;;;5092608;28;20887;-70
2022/02/01 12:28:16;;;;;;;1.10;1.00;;;4.60;98.00;;;;;;5078668;28;20516;-70
2022/02/01 12:33:27;;;;;;;1.10;1.00;;;4.60;98.00;;;;;;5113172;28;20959;-69
2022/02/01 12:35:56;;;;;;;1.10;1.00;;;4.40;98.00;;;;;;5113136;28;20481;-69
2022/02/01 12:38:28;;;;;;;1.10;1.00;;;4.40;98.00;;;;;;5113345;28;20881;-70
2022/02/01 12:40:59;;;;;;;1.10;1.00;;;4.20;98.00;;;;;;5113149;28;20886;-70
2022/02/01 12:43:31;;;;;;;1.10;1.00;;;4.20;98.00;;;;;;5113058;28;20886;-69
2022/02/01 12:46:05;;;;;;;1.10;1.00;;;4.20;98.00;;;;;;5112984;28;20447;-70
2022/02/01 12:48:35;;;;;;;1.10;1.00;;;4.20;98.00;;;;;;5113057;28;21025;-70
2022/02/01 12:51:05;;;;;;;1.10;0.90;;;4.20;98.00;;;;;;5112903;28;21062;-70
2022/02/01 12:53:42;;;;;;;1.10;0.90;;;4.20;98.00;;;;;;5112964;28;20527;-69
2022/02/01 12:56:14;;;;;;;1.30;1.20;;;4.20;98.00;;;;;;5112649;28;20724;-70
2022/02/01 12:58:42;;;;;;;1.10;1.00;;;4.30;98.00;;;;;;5112793;28;20461;-70
2022/02/01 13:01:10;;;;;;;1.10;1.00;;;4.30;98.00;;;;;;5112821;28;20826;-69
2022/02/01 13:03:43;;;;;;;1.10;1.00;;;4.30;98.00;;;;;;5112672;28;20474;-69
2022/02/01 13:06:13;;;;;;;1.10;1.00;;;4.30;98.00;;;;;;5094126;28;20542;-70
2022/02/01 13:14:39;;;;;;;1.10;1.00;;;4.20;98.00;;;;;;5111675;28;21090;-70
2022/02/01 13:17:34;;;;;;;1.10;0.90;;;4.30;98.00;;;;;;5097504;28;20514;-69
2022/02/01 13:20:06;;;;;;;1.10;1.00;;;4.30;98.00;;;;;;5112676;28;20537;-69
2022/02/01 13:22:34;;;;;;;1.10;0.90;;;4.30;98.00;;;;;;5112460;28;20541;-69
2022/02/01 13:25:02;;;;;;;1.10;1.00;;;4.20;98.00;;;;;;5112308;28;20455;-70
2022/02/01 13:27:29;;;;;;;1.10;1.00;;;4.20;98.00;;;;;;5112321;28;20897;-68
2022/02/01 13:30:03;;;;;;;1.20;1.07;;;4.30;98.00;;;;;;5112229;28;20488;-69
2022/02/01 13:32:35;;;;;;;1.10;1.00;;;4.30;98.00;;;;;;5112212;28;20459;-69
2022/02/01 13:35:04;;;;;;;1.10;1.00;;;4.30;98.00;;;;;;5112194;28;20850;-67
2022/02/01 13:37:31;;;;;;;1.10;0.90;;;4.30;98.00;;;;;;5111755;28;20515;-69
2022/02/01 13:40:02;;;;;;;2.23;1.70;;;4.20;98.00;;;;;;5112082;28;20564;-69
2022/02/01 13:42:31;;;;;;;1.10;1.00;;;4.10;98.00;;;;;;5111859;28;20466;-69
2022/02/01 13:45:02;;;;;;;1.10;0.90;;;4.20;98.00;;;;;;5111231;28;20507;-69
2022/02/01 13:47:35;;;;;;;1.80;1.20;;;4.20;98.00;;;;;;5112003;28;20447;-69
2022/02/01 13:50:06;;;;;;;1.10;0.90;;;4.10;98.00;;;;;;5112096;28;20452;-69
2022/02/01 13:52:34;;;;;;;1.10;1.00;;;4.10;98.00;;;;;;5111925;28;20746;-69
2022/02/01 13:55:01;;;;;;;1.20;1.13;;;4.10;98.00;;;;;;5111805;28;20494;-69
2022/02/01 13:57:31;;;;;;;1.10;0.93;;;4.20;98.00;;;;;;5111690;28;20483;-69
2022/02/01 14:00:09;;;;;;;1.10;1.00;;;4.20;98.00;;;;;;5111728;28;20533;-69
2022/02/01 14:02:43;;;;;;;1.83;1.43;;;4.10;98.00;;;;;;5111634;28;20451;-69
2022/02/01 14:05:20;;;;;;;1.10;1.00;;;4.10;98.00;;;;;;5111755;28;20519;-69
2022/02/01 14:08:14;;;;;;;1.10;1.00;;;4.10;98.00;;;;;;5111541;28;20450;-69
2022/02/01 14:10:49;;;;;;;1.10;1.00;;;4.10;98.00;;;;;;5111459;28;20458;-69
2022/02/01 14:27:17;;;;;;;1.10;1.00;;;4.00;98.00;;;;;;5089371;28;20449;-69
2022/02/01 14:33:13;;;;;;;1.30;1.30;;;3.90;98.00;;;;;;5111429;28;20450;-69
2022/02/01 14:35:31;;;;;;;1.10;1.00;;;3.90;98.00;;;;;;5111276;28;20952;-69
2022/02/01 14:38:08;;;;;;;1.10;1.00;;;3.80;98.00;;;;;;5111303;28;20567;-69
2022/02/01 14:43:35;;;;;;;1.10;0.90;;;3.90;98.00;;;;;;5111666;28;20449;-69
2022/02/01 14:46:02;;;;;;;1.20;1.10;;;3.90;98.00;;;;;;5111046;28;20453;-69
2022/02/01 14:48:32;;;;;;;1.10;0.90;;;3.90;98.00;;;;;;5110544;28;20505;-69